Time;durP1;ratioP1;P1;durP2;ratioP2;P2;SDS_P1;SDS_P2;PMS_P1;PMS_P2;Temp;Humidity;BMP_temperature;BMP_pressure;BME280_temperature;BME280_humidity;BME280_pressure;Samples;Min_cycle;Max_cycle;Signal;HPM_P1;HPM_P2
2022/03/20 00:02:04;;;;;;;1.52;0.80;;;18.60;33.80;;;;;;5096997;28;20481;-57
2022/03/20 00:04:30;;;;;;;1.38;0.80;;;18.60;33.80;;;;;;5097589;28;20015;-56
2022/03/20 00:06:56;;;;;;;2.95;0.90;;;18.60;33.80;;;;;;5115758;28;20388;-56
2022/03/20 00:09:21;;;;;;;1.48;0.52;;;18.60;33.90;;;;;;5115472;28;20068;-56
2022/03/20 00:11:47;;;;;;;1.33;0.70;;;18.60;33.90;;;;;;5115224;28;20098;-58
2022/03/20 00:14:13;;;;;;;3.38;1.02;;;18.60;34.00;;;;;;5115079;28;20474;-56
2022/03/20 00:16:39;;;;;;;1.70;0.70;;;18.60;34.00;;;;;;5115150;28;20027;-57
2022/03/20 00:19:05;;;;;;;1.77;0.82;;;18.60;34.00;;;;;;5115448;28;20406;-57
2022/03/20 00:21:31;;;;;;;1.60;0.73;;;18.60;34.00;;;;;;5115495;28;20008;-56
2022/03/20 00:23:58;;;;;;;1.52;0.80;;;18.60;34.00;;;;;;5097126;28;20012;-57
2022/03/20 00:26:24;;;;;;;1.42;0.73;;;18.60;34.00;;;;;;5097469;28;20018;-57
2022/03/20 00:28:51;;;;;;;1.42;0.90;;;18.60;34.70;;;;;;5115402;28;20047;-57
2022/03/20 00:31:17;;;;;;;1.88;0.73;;;18.60;34.10;;;;;;5096372;28;20046;-56
2022/03/20 00:33:44;;;;;;;1.48;0.80;;;18.60;34.10;;;;;;5115080;28;20026;-57
2022/03/20 00:36:09;;;;;;;1.63;0.82;;;18.50;34.10;;;;;;5114468;28;20115;-56
2022/03/20 00:38:35;;;;;;;2.17;0.90;;;18.60;34.10;;;;;;5114221;28;20445;-56
2022/03/20 00:41:01;;;;;;;1.35;0.70;;;18.60;34.10;;;;;;5095834;28;20019;-55
2022/03/20 00:43:30;;;;;;;2.20;0.85;;;18.50;34.20;;;;;;5096237;28;20016;-56
2022/03/20 00:45:56;;;;;;;0.95;0.68;;;18.60;34.30;;;;;;5114126;28;20066;-56
2022/03/20 00:48:23;;;;;;;1.65;0.80;;;18.60;34.30;;;;;;5096338;28;20063;-58
2022/03/20 00:50:49;;;;;;;1.85;0.90;;;18.50;34.20;;;;;;5114250;28;20019;-56
2022/03/20 00:53:16;;;;;;;2.55;1.00;;;18.50;34.20;;;;;;5095890;28;20050;-57
2022/03/20 00:55:41;;;;;;;1.92;1.10;;;18.50;34.30;;;;;;5113754;28;20020;-57
2022/03/20 00:58:10;;;;;;;2.22;0.80;;;18.50;34.30;;;;;;5114203;28;20028;-57
2022/03/20 01:00:36;;;;;;;1.52;0.80;;;18.50;34.30;;;;;;5114149;28;20058;-56
2022/03/20 01:03:02;;;;;;;2.65;0.82;;;18.50;34.40;;;;;;5114033;28;20014;-57
2022/03/20 01:05:29;;;;;;;1.40;0.90;;;18.50;34.40;;;;;;5114062;28;20401;-58
2022/03/20 01:07:55;;;;;;;2.60;1.00;;;18.50;34.40;;;;;;5113976;28;20003;-57
2022/03/20 01:10:21;;;;;;;1.27;0.85;;;18.50;34.40;;;;;;5113555;28;20114;-56
2022/03/20 01:12:47;;;;;;;1.30;0.90;;;18.50;34.30;;;;;;5113593;28;20051;-57
2022/03/20 01:15:13;;;;;;;2.60;0.88;;;18.50;34.30;;;;;;5095723;28;20054;-57
2022/03/20 01:17:38;;;;;;;1.45;0.88;;;18.50;34.40;;;;;;5113755;28;20038;-57
2022/03/20 01:20:05;;;;;;;1.95;0.80;;;18.50;34.40;;;;;;5113738;28;20012;-56
2022/03/20 01:22:31;;;;;;;1.48;0.80;;;18.50;34.40;;;;;;5095540;28;20016;-58
2022/03/20 01:24:57;;;;;;;1.50;0.80;;;18.50;34.40;;;;;;5113925;28;20031;-58
2022/03/20 01:27:22;;;;;;;1.70;0.90;;;18.50;34.40;;;;;;5100871;28;20011;-58
2022/03/20 01:29:48;;;;;;;1.85;0.95;;;18.50;34.50;;;;;;5102680;28;20048;-58
2022/03/20 01:32:16;;;;;;;2.10;1.05;;;18.50;34.50;;;;;;5116988;28;20024;-57
2022/03/20 01:34:42;;;;;;;2.05;0.90;;;18.50;34.50;;;;;;5114708;28;20038;-56
2022/03/20 01:37:08;;;;;;;2.17;0.80;;;18.50;34.70;;;;;;5113377;28;20028;-57
2022/03/20 01:39:34;;;;;;;3.13;0.85;;;18.50;34.60;;;;;;5113728;28;20026;-57
2022/03/20 01:42:00;;;;;;;2.45;1.00;;;18.50;34.70;;;;;;5114433;28;20023;-56
2022/03/20 01:44:33;;;;;;;1.77;0.75;;;18.40;34.60;;;;;;5120700;28;20019;-57
2022/03/20 01:46:59;;;;;;;4.13;1.10;;;18.40;34.60;;;;;;5120861;28;20485;-56
2022/03/20 01:49:25;;;;;;;3.08;1.00;;;18.40;34.60;;;;;;5120828;28;20015;-57
2022/03/20 01:54:35;;;;;;;1.63;1.00;;;18.40;34.70;;;;;;5122031;28;20027;-58
2022/03/20 01:57:01;;;;;;;1.27;0.93;;;18.40;34.70;;;;;;5122535;28;20019;-58
2022/03/20 01:59:27;;;;;;;2.22;1.00;;;18.40;34.80;;;;;;5121607;28;20016;-57
2022/03/20 02:01:53;;;;;;;1.35;0.77;;;18.40;34.80;;;;;;5103486;28;20038;-57
2022/03/20 02:04:19;;;;;;;1.98;1.00;;;18.40;34.80;;;;;;5103249;28;20450;-58
2022/03/20 02:06:45;;;;;;;2.22;0.90;;;18.40;34.80;;;;;;5121477;28;20408;-56
2022/03/20 02:09:11;;;;;;;1.67;0.80;;;18.40;34.90;;;;;;5121706;28;20019;-57
2022/03/20 02:11:37;;;;;;;1.63;0.80;;;18.40;34.80;;;;;;5121862;28;20024;-58
2022/03/20 02:14:05;;;;;;;1.25;0.68;;;18.40;34.90;;;;;;5121467;28;20023;-57
2022/03/20 02:16:31;;;;;;;3.13;0.90;;;18.40;34.90;;;;;;5102957;28;20023;-57
2022/03/20 02:18:57;;;;;;;1.13;0.80;;;18.40;34.80;;;;;;5121049;28;20024;-56
2022/03/20 02:21:39;;;;;;;1.55;0.80;;;18.40;34.90;;;;;;5102984;28;20020;-57
2022/03/20 02:24:06;;;;;;;1.42;0.63;;;18.40;34.90;;;;;;5120535;28;20465;-56
2022/03/20 02:26:32;;;;;;;1.55;0.88;;;18.40;34.90;;;;;;5102506;28;20077;-57
2022/03/20 02:28:59;;;;;;;2.13;0.98;;;18.40;34.90;;;;;;5120790;28;20462;-58
2022/03/20 02:31:25;;;;;;;2.60;1.10;;;18.40;34.90;;;;;;5120517;28;20043;-59
2022/03/20 02:33:52;;;;;;;1.63;0.90;;;18.40;34.90;;;;;;5103148;28;20007;-57
2022/03/20 02:36:17;;;;;;;1.95;0.80;;;18.30;34.90;;;;;;5120651;28;20070;-58
2022/03/20 02:38:43;;;;;;;2.08;0.75;;;18.40;35.00;;;;;;5102600;28;20008;-58
2022/03/20 02:41:14;;;;;;;2.72;1.15;;;18.30;35.00;;;;;;5123652;28;20465;-58
2022/03/20 02:43:52;;;;;;;1.38;0.73;;;18.30;35.00;;;;;;5123457;28;20012;-54
2022/03/20 02:46:17;;;;;;;1.75;0.80;;;18.30;35.00;;;;;;5120417;28;20020;-57
2022/03/20 02:48:45;;;;;;;2.25;0.90;;;18.30;35.00;;;;;;5102456;28;20027;-57
2022/03/20 02:51:11;;;;;;;1.70;0.82;;;18.30;35.10;;;;;;5101587;28;20465;-57
2022/03/20 02:53:37;;;;;;;1.40;0.73;;;18.30;35.10;;;;;;5118789;28;20027;-55
2022/03/20 02:56:05;;;;;;;1.20;0.80;;;18.30;35.10;;;;;;5097295;28;20035;-56
2022/03/20 02:58:31;;;;;;;2.35;0.93;;;18.30;35.10;;;;;;5116425;28;20057;-57
2022/03/20 03:00:58;;;;;;;2.03;0.70;;;18.30;35.10;;;;;;5098482;28;20024;-55
2022/03/20 03:03:25;;;;;;;1.48;0.80;;;18.30;35.20;;;;;;5116339;28;20046;-56
2022/03/20 03:05:58;;;;;;;2.53;0.80;;;18.30;35.20;;;;;;5116417;28;20011;-57
2022/03/20 03:11:09;;;;;;;1.50;0.80;;;18.30;35.20;;;;;;5116470;28;20545;-57
2022/03/20 03:13:41;;;;;;;0.88;0.70;;;18.30;35.20;;;;;;5080997;28;20031;-57
2022/03/20 03:16:08;;;;;;;2.03;1.05;;;18.30;35.20;;;;;;5099405;28;20023;-57
2022/03/20 03:18:35;;;;;;;1.48;0.75;;;18.30;35.30;;;;;;5119391;28;20020;-58
2022/03/20 03:21:02;;;;;;;1.75;0.90;;;18.30;35.30;;;;;;5119282;28;20008;-58
2022/03/20 03:23:28;;;;;;;1.55;0.80;;;18.30;35.30;;;;;;5117856;28;20020;-58
2022/03/20 03:25:55;;;;;;;2.05;1.00;;;18.30;35.30;;;;;;5120550;28;20052;-58
2022/03/20 03:28:22;;;;;;;1.92;0.93;;;18.30;35.30;;;;;;5119881;28;20031;-58
2022/03/20 03:30:48;;;;;;;3.03;0.70;;;18.20;35.30;;;;;;5117475;28;20088;-58
2022/03/20 03:33:16;;;;;;;1.77;0.80;;;18.20;35.30;;;;;;5118504;28;20012;-58
2022/03/20 03:35:43;;;;;;;0.95;0.70;;;18.20;35.30;;;;;;5120009;28;20023;-56
2022/03/20 03:38:10;;;;;;;1.95;1.13;;;18.20;35.30;;;;;;5118729;28;20022;-58
2022/03/20 03:40:37;;;;;;;1.27;0.90;;;18.20;35.30;;;;;;5118772;28;20015;-58
2022/03/20 03:43:03;;;;;;;2.42;1.13;;;18.20;35.30;;;;;;5118306;28;20008;-58
2022/03/20 03:45:29;;;;;;;1.52;0.90;;;18.20;35.40;;;;;;5119238;28;20027;-57
2022/03/20 03:47:55;;;;;;;1.33;0.85;;;18.20;35.40;;;;;;5117828;28;20069;-58
2022/03/20 03:50:22;;;;;;;2.85;1.20;;;18.20;35.40;;;;;;5117799;28;20072;-58
2022/03/20 03:52:48;;;;;;;2.15;1.10;;;18.20;35.40;;;;;;5118566;28;20015;-58
2022/03/20 03:55:15;;;;;;;1.33;1.05;;;18.20;35.50;;;;;;5099426;28;20024;-58
2022/03/20 03:57:45;;;;;;;1.92;0.88;;;18.20;35.50;;;;;;5117771;28;20466;-58
2022/03/20 04:00:11;;;;;;;2.47;1.30;;;18.20;35.50;;;;;;5117497;28;20008;-58
2022/03/20 04:02:37;;;;;;;1.58;0.80;;;18.20;35.40;;;;;;5099010;28;20012;-58
2022/03/20 04:05:03;;;;;;;1.83;1.10;;;18.20;35.50;;;;;;5098362;28;20012;-58
2022/03/20 04:07:28;;;;;;;1.45;0.90;;;18.20;35.50;;;;;;5099662;28;20031;-58
2022/03/20 04:09:54;;;;;;;2.40;1.23;;;18.10;35.50;;;;;;5117762;28;20427;-58
2022/03/20 04:12:20;;;;;;;2.03;1.00;;;18.10;35.50;;;;;;5116951;28;20091;-57
2022/03/20 04:14:48;;;;;;;2.42;1.00;;;18.20;35.50;;;;;;5116274;28;20039;-56
2022/03/20 04:17:14;;;;;;;1.45;0.95;;;18.10;35.50;;;;;;5116347;28;20027;-58
2022/03/20 04:19:41;;;;;;;2.13;1.00;;;18.10;35.50;;;;;;5098668;28;20028;-57
2022/03/20 04:22:06;;;;;;;2.00;1.08;;;18.10;35.50;;;;;;5097771;28;20024;-57
2022/03/20 04:24:33;;;;;;;2.20;1.25;;;18.10;35.50;;;;;;5098003;28;20091;-58
2022/03/20 04:26:58;;;;;;;2.25;1.02;;;18.10;35.60;;;;;;5096998;28;20050;-58
2022/03/20 04:29:27;;;;;;;2.30;1.25;;;18.10;35.60;;;;;;5097977;28;20232;-59
2022/03/20 04:31:54;;;;;;;1.92;0.90;;;18.10;35.60;;;;;;5118663;28;20031;-58
2022/03/20 04:34:21;;;;;;;1.58;0.85;;;18.10;35.60;;;;;;5118029;28;20019;-58
2022/03/20 04:36:48;;;;;;;1.77;1.00;;;18.10;35.80;;;;;;5117812;28;20051;-57
2022/03/20 04:39:14;;;;;;;2.08;1.00;;;18.10;35.60;;;;;;5117315;28;20018;-58
2022/03/20 04:41:41;;;;;;;1.45;0.98;;;18.10;35.60;;;;;;5116846;28;20012;-57
2022/03/20 04:44:11;;;;;;;1.42;1.10;;;18.10;35.70;;;;;;5116759;28;20022;-57
2022/03/20 04:46:37;;;;;;;1.55;1.10;;;18.10;35.70;;;;;;5118451;28;20016;-57
2022/03/20 05:00:01;;;;;;;1.85;1.23;;;18.00;35.70;;;;;;5117157;28;20054;-58
2022/03/20 05:02:27;;;;;;;1.98;1.23;;;18.10;35.70;;;;;;5116387;28;20015;-57
2022/03/20 05:04:52;;;;;;;3.60;1.20;;;18.00;35.60;;;;;;5098111;28;20461;-58
2022/03/20 05:07:19;;;;;;;2.03;1.20;;;18.00;35.70;;;;;;5116145;28;20498;-58
2022/03/20 05:15:14;;;;;;;1.77;1.20;;;18.00;35.70;;;;;;5102325;28;20081;-58
2022/03/20 05:17:40;;;;;;;2.70;1.30;;;18.00;35.70;;;;;;5116681;28;20023;-58
2022/03/20 05:20:07;;;;;;;3.00;1.42;;;18.00;35.70;;;;;;5119558;28;20023;-57
2022/03/20 05:22:39;;;;;;;1.70;1.20;;;18.00;35.80;;;;;;5119148;28;20481;-58
2022/03/20 05:25:16;;;;;;;2.28;1.40;;;18.00;35.90;;;;;;5100528;28;20016;-58
2022/03/20 05:27:54;;;;;;;2.17;1.40;;;18.00;35.80;;;;;;5115597;28;20023;-58
2022/03/20 05:30:20;;;;;;;3.20;1.48;;;18.00;35.80;;;;;;5114880;28;20082;-58
2022/03/20 05:32:47;;;;;;;3.42;1.58;;;17.90;35.80;;;;;;5114198;28;20481;-57
2022/03/20 05:35:13;;;;;;;2.60;1.60;;;17.90;35.80;;;;;;5113774;28;20462;-56
2022/03/20 05:37:39;;;;;;;2.30;1.40;;;17.90;35.80;;;;;;5115070;28;20028;-58
2022/03/20 05:40:06;;;;;;;2.20;1.50;;;17.90;35.80;;;;;;5115689;28;20028;-58
2022/03/20 05:42:32;;;;;;;2.03;1.45;;;17.90;35.80;;;;;;5096043;28;20065;-57
2022/03/20 05:44:57;;;;;;;2.72;1.60;;;17.90;35.80;;;;;;5113992;28;20020;-57
2022/03/20 05:47:23;;;;;;;2.80;1.65;;;17.90;35.80;;;;;;5078624;28;20016;-56
2022/03/20 05:49:49;;;;;;;2.80;1.95;;;17.90;35.80;;;;;;5114047;28;20531;-57
2022/03/20 05:52:15;;;;;;;2.10;1.70;;;17.90;35.80;;;;;;5114365;28;20145;-58
2022/03/20 05:54:44;;;;;;;2.58;1.80;;;17.90;35.80;;;;;;5113945;28;20044;-58
2022/03/20 05:59:55;;;;;;;2.20;1.90;;;17.90;35.80;;;;;;5115582;28;20034;-56
2022/03/20 06:02:21;;;;;;;2.72;1.85;;;17.90;35.80;;;;;;5116698;28;20020;-58
2022/03/20 06:04:47;;;;;;;2.80;1.60;;;17.90;35.70;;;;;;5116189;28;20067;-58
2022/03/20 06:07:14;;;;;;;3.58;1.92;;;17.90;35.90;;;;;;5115249;28;20020;-58
2022/03/20 06:09:40;;;;;;;4.00;1.73;;;17.90;35.80;;;;;;5097208;28;20020;-55
2022/03/20 06:12:07;;;;;;;2.50;1.77;;;17.90;35.90;;;;;;5115840;28;20055;-58
2022/03/20 06:14:35;;;;;;;2.42;1.90;;;17.90;35.90;;;;;;5115998;28;20016;-58
2022/03/20 06:17:02;;;;;;;2.97;1.65;;;17.90;35.90;;;;;;5097562;28;20023;-57
2022/03/20 06:19:28;;;;;;;2.63;1.83;;;17.90;35.90;;;;;;5115248;28;20020;-57
2022/03/20 06:21:54;;;;;;;2.72;1.75;;;17.80;35.80;;;;;;5114492;28;20024;-56
2022/03/20 06:24:20;;;;;;;2.42;1.80;;;17.80;35.80;;;;;;5096294;28;20053;-57
2022/03/20 06:26:46;;;;;;;3.00;2.03;;;17.80;35.90;;;;;;5114375;28;20032;-58
2022/03/20 06:29:12;;;;;;;3.75;1.83;;;17.80;35.90;;;;;;5116259;28;20032;-57
2022/03/20 06:31:38;;;;;;;2.22;1.80;;;17.90;35.90;;;;;;5100518;28;20026;-58
2022/03/20 06:34:04;;;;;;;2.83;1.92;;;17.80;35.80;;;;;;5118170;28;20012;-57
2022/03/20 06:36:30;;;;;;;2.72;2.13;;;17.90;35.90;;;;;;5118078;28;20481;-58
2022/03/20 06:38:56;;;;;;;2.55;2.05;;;17.90;35.80;;;;;;5118663;28;20119;-57
2022/03/20 06:41:23;;;;;;;3.08;1.88;;;17.80;35.80;;;;;;5118667;28;20016;-57
2022/03/20 06:43:50;;;;;;;4.20;2.00;;;17.80;35.80;;;;;;5118143;28;20094;-57
2022/03/20 06:46:16;;;;;;;2.70;2.15;;;17.80;35.90;;;;;;5118693;28;20043;-57
2022/03/20 06:48:42;;;;;;;4.75;2.00;;;17.80;35.90;;;;;;5099994;28;20012;-55
2022/03/20 06:51:08;;;;;;;2.60;1.83;;;17.80;35.80;;;;;;5117351;28;20057;-56
2022/03/20 06:53:34;;;;;;;3.95;2.25;;;17.80;36.00;;;;;;5117597;28;20023;-55
2022/03/20 06:56:00;;;;;;;3.53;1.92;;;17.80;35.90;;;;;;5117281;28;20020;-57
2022/03/20 06:58:27;;;;;;;3.28;2.40;;;17.80;35.90;;;;;;5116868;28;20492;-57
2022/03/20 07:00:53;;;;;;;3.80;2.28;;;17.80;35.90;;;;;;5116553;28;20023;-57
2022/03/20 07:03:20;;;;;;;3.40;2.25;;;17.80;35.90;;;;;;5116697;28;20091;-57
2022/03/20 07:05:46;;;;;;;2.97;2.35;;;17.80;36.00;;;;;;5099422;28;20024;-58
2022/03/20 07:08:12;;;;;;;3.83;2.38;;;17.80;35.90;;;;;;5101902;28;20037;-57
2022/03/20 07:10:38;;;;;;;4.68;2.30;;;17.80;36.00;;;;;;5119237;28;20507;-57
2022/03/20 07:15:50;;;;;;;3.17;2.25;;;17.80;35.90;;;;;;5118290;28;20023;-57
2022/03/20 07:18:19;;;;;;;2.88;1.98;;;17.80;36.00;;;;;;5119258;28;20024;-58
2022/03/20 07:20:47;;;;;;;3.42;2.05;;;17.80;36.00;;;;;;5102911;28;20007;-58
2022/03/20 07:23:13;;;;;;;2.78;2.20;;;17.70;35.90;;;;;;5121091;28;20075;-58
2022/03/20 07:31:11;;;;;;;5.45;2.22;;;17.80;36.00;;;;;;5121578;28;20054;-58
2022/03/20 07:33:39;;;;;;;4.20;2.80;;;17.70;36.00;;;;;;5121261;28;20016;-60
2022/03/20 07:36:06;;;;;;;2.92;2.20;;;17.70;35.90;;;;;;5120803;28;20069;-58
2022/03/20 07:38:33;;;;;;;4.65;2.25;;;17.80;36.00;;;;;;5120684;28;20011;-56
2022/03/20 07:40:59;;;;;;;3.42;2.50;;;17.80;36.10;;;;;;5119907;28;20067;-57
2022/03/20 07:43:27;;;;;;;3.17;2.20;;;17.70;36.00;;;;;;5120303;28;20495;-58
2022/03/20 07:45:53;;;;;;;4.13;2.45;;;17.70;36.00;;;;;;5118864;28;20103;-55
2022/03/20 07:48:23;;;;;;;4.80;2.45;;;17.70;36.10;;;;;;5117462;28;20439;-57
2022/03/20 07:50:50;;;;;;;4.47;2.90;;;17.70;35.90;;;;;;5118335;28;20012;-58
2022/03/20 07:53:17;;;;;;;3.40;2.55;;;17.70;36.10;;;;;;5099268;28;20036;-59
2022/03/20 07:55:46;;;;;;;4.13;2.90;;;17.70;36.00;;;;;;5117759;28;20016;-58
2022/03/20 07:58:17;;;;;;;2.83;2.30;;;17.70;36.10;;;;;;5117634;28;20032;-57
2022/03/20 08:00:43;;;;;;;3.58;2.60;;;17.70;36.20;;;;;;5100607;28;20020;-57
2022/03/20 08:03:09;;;;;;;3.50;2.38;;;17.70;36.10;;;;;;5099677;28;20008;-59
2022/03/20 08:05:35;;;;;;;4.45;2.42;;;17.70;36.10;;;;;;5117540;28;20167;-56
2022/03/20 08:08:02;;;;;;;3.50;2.58;;;17.70;36.10;;;;;;5117391;28;20541;-54
2022/03/20 08:10:28;;;;;;;5.45;2.47;;;17.70;36.10;;;;;;5116990;28;20016;-58
2022/03/20 08:12:54;;;;;;;4.57;3.17;;;17.60;36.10;;;;;;5117029;28;20026;-57
2022/03/20 08:15:20;;;;;;;3.38;2.42;;;17.60;36.10;;;;;;5116810;28;20116;-55
2022/03/20 08:17:48;;;;;;;3.78;2.60;;;17.60;36.20;;;;;;5116873;28;20081;-59
2022/03/20 08:20:14;;;;;;;3.40;2.50;;;17.60;36.10;;;;;;5118204;28;20016;-60
2022/03/20 08:22:42;;;;;;;4.28;2.83;;;17.60;36.20;;;;;;5117809;28;20420;-54
2022/03/20 08:25:10;;;;;;;4.40;3.03;;;17.60;36.20;;;;;;5117942;28;20012;-55
2022/03/20 08:27:45;;;;;;;4.00;3.10;;;17.60;36.20;;;;;;5117309;28;20043;-59
2022/03/20 08:30:13;;;;;;;3.97;2.80;;;17.60;36.20;;;;;;5116018;28;20114;-55
2022/03/20 08:32:39;;;;;;;5.15;3.05;;;17.60;36.20;;;;;;5115496;28;20068;-58
2022/03/20 08:35:05;;;;;;;3.20;2.70;;;17.60;36.20;;;;;;5097312;28;20023;-59
2022/03/20 08:37:35;;;;;;;3.55;2.95;;;17.60;36.20;;;;;;5115917;28;20496;-59
2022/03/20 08:40:02;;;;;;;4.45;2.80;;;17.60;36.20;;;;;;5116263;28;20099;-58
2022/03/20 08:42:29;;;;;;;4.05;3.10;;;17.60;36.20;;;;;;5115669;28;20019;-59
2022/03/20 08:44:55;;;;;;;5.63;3.05;;;17.60;36.20;;;;;;5116994;28;20504;-58
2022/03/20 08:47:21;;;;;;;4.47;3.25;;;17.60;36.20;;;;;;5100516;28;20016;-59
2022/03/20 08:49:49;;;;;;;5.90;3.05;;;17.60;36.20;;;;;;5117932;28;20141;-58
2022/03/20 08:52:15;;;;;;;4.32;3.03;;;17.60;36.20;;;;;;5117072;28;20034;-59
2022/03/20 08:54:42;;;;;;;3.53;3.22;;;17.60;36.20;;;;;;5117738;28;20020;-57
2022/03/20 08:57:08;;;;;;;3.95;2.88;;;17.60;36.20;;;;;;5117582;28;20025;-57
2022/03/20 08:59:34;;;;;;;5.80;3.40;;;17.60;36.20;;;;;;5117059;28;20019;-58
2022/03/20 09:02:01;;;;;;;6.30;3.35;;;17.60;36.20;;;;;;5115113;28;20020;-59
2022/03/20 09:04:27;;;;;;;4.95;3.20;;;17.60;36.10;;;;;;5097077;28;20074;-58
2022/03/20 09:06:53;;;;;;;5.28;3.17;;;17.70;36.20;;;;;;5115015;28;20015;-57
2022/03/20 09:09:20;;;;;;;3.88;3.17;;;17.70;36.20;;;;;;5114961;28;20023;-58
2022/03/20 09:11:47;;;;;;;5.10;3.47;;;17.70;36.30;;;;;;5115058;28;20016;-58
2022/03/20 09:14:13;;;;;;;6.18;3.70;;;17.70;36.30;;;;;;5116292;28;20027;-59
2022/03/20 09:19:23;;;;;;;3.40;3.08;;;17.70;36.30;;;;;;5120500;28;20024;-59
2022/03/20 09:21:50;;;;;;;4.97;3.53;;;17.70;36.30;;;;;;5120963;28;20016;-59
2022/03/20 09:24:17;;;;;;;4.78;3.40;;;17.70;36.30;;;;;;5120547;28;20024;-60
2022/03/20 09:26:43;;;;;;;5.85;3.50;;;17.70;36.20;;;;;;5120302;28;20024;-60
2022/03/20 09:29:09;;;;;;;4.13;3.58;;;17.70;36.20;;;;;;5119527;28;20018;-59
2022/03/20 09:31:34;;;;;;;6.18;3.15;;;17.70;36.30;;;;;;5114240;28;20080;-56
2022/03/20 09:34:01;;;;;;;4.80;3.65;;;17.80;36.30;;;;;;5114112;28;20019;-58
2022/03/20 09:36:28;;;;;;;5.50;3.20;;;17.70;36.30;;;;;;5096096;28;20180;-58
2022/03/20 09:38:53;;;;;;;6.35;3.30;;;17.70;36.30;;;;;;5115297;28;20016;-59
2022/03/20 09:41:19;;;;;;;4.65;3.63;;;17.70;36.30;;;;;;5116091;28;20012;-60
2022/03/20 09:43:45;;;;;;;6.32;3.38;;;17.70;36.30;;;;;;5116981;28;20086;-59
2022/03/20 09:46:11;;;;;;;5.65;3.55;;;17.70;36.30;;;;;;5099782;28;20016;-59
2022/03/20 09:48:37;;;;;;;4.40;3.47;;;17.80;36.40;;;;;;5099417;28;20086;-60
2022/03/20 09:51:04;;;;;;;4.53;3.47;;;17.70;36.40;;;;;;5120998;28;20054;-60
2022/03/20 09:53:30;;;;;;;5.45;3.95;;;17.70;36.40;;;;;;5122501;28;20016;-59
2022/03/20 09:55:56;;;;;;;4.72;3.40;;;17.70;36.90;;;;;;5103796;28;20351;-60
2022/03/20 09:58:25;;;;;;;5.43;3.42;;;17.70;36.40;;;;;;5118310;28;20020;-59
2022/03/20 10:00:52;;;;;;;4.15;3.55;;;17.80;36.40;;;;;;5117724;28;20068;-59
2022/03/20 10:03:20;;;;;;;5.20;3.65;;;17.70;36.50;;;;;;5116998;28;20015;-58
2022/03/20 10:06:05;;;;;;;4.47;3.45;;;17.80;36.50;;;;;;5120693;28;20012;-60
2022/03/20 10:08:31;;;;;;;6.20;3.67;;;17.70;36.40;;;;;;5121202;28;20018;-59
2022/03/20 10:11:18;;;;;;;5.00;3.50;;;17.80;36.50;;;;;;5102288;28;20027;-59
2022/03/20 10:14:06;;;;;;;5.40;3.92;;;17.70;36.40;;;;;;5121010;28;20020;-59
2022/03/20 10:16:31;;;;;;;4.38;3.63;;;17.80;36.50;;;;;;5119343;28;20024;-58
2022/03/20 10:18:57;;;;;;;6.20;4.10;;;17.70;36.40;;;;;;5119431;28;20020;-61
2022/03/20 10:21:41;;;;;;;4.65;3.90;;;17.70;36.40;;;;;;5119708;28;20016;-58
2022/03/20 10:24:15;;;;;;;4.97;3.85;;;17.80;36.50;;;;;;5084445;28;20016;-60
2022/03/20 10:26:40;;;;;;;5.63;3.72;;;17.70;36.50;;;;;;5120405;28;20020;-62
2022/03/20 10:29:17;;;;;;;5.05;4.00;;;17.70;36.40;;;;;;5119843;28;20019;-58
2022/03/20 10:31:53;;;;;;;4.60;3.97;;;17.80;36.50;;;;;;5086314;28;20031;-59
2022/03/20 10:34:19;;;;;;;4.07;3.58;;;17.80;36.50;;;;;;5119730;28;20023;-58
2022/03/20 10:36:45;;;;;;;4.78;3.58;;;17.70;36.50;;;;;;5119777;28;20042;-58
2022/03/20 10:39:21;;;;;;;5.45;4.05;;;17.70;36.50;;;;;;5119259;28;20011;-58
2022/03/20 10:41:48;;;;;;;4.10;3.50;;;17.70;36.40;;;;;;5119771;28;20023;-58
2022/03/20 10:44:16;;;;;;;5.07;4.18;;;17.70;36.40;;;;;;5119141;28;20504;-58
2022/03/20 10:46:42;;;;;;;4.75;4.25;;;17.80;36.50;;;;;;5118700;28;20069;-59
2022/03/20 10:49:11;;;;;;;4.85;4.13;;;17.80;36.50;;;;;;5119140;28;20050;-58
2022/03/20 10:51:41;;;;;;;7.18;4.60;;;17.80;36.50;;;;;;5119912;28;20545;-58
2022/03/20 10:54:11;;;;;;;6.93;4.38;;;17.80;36.50;;;;;;5117975;28;20047;-58
2022/03/20 10:56:52;;;;;;;4.57;4.07;;;17.80;36.40;;;;;;5118167;28;20103;-58
2022/03/20 10:59:17;;;;;;;6.20;4.30;;;17.80;36.50;;;;;;5103238;28;20035;-58
2022/03/20 11:01:44;;;;;;;5.53;4.32;;;17.80;36.40;;;;;;5119653;28;20030;-59
2022/03/20 11:04:11;;;;;;;6.20;3.95;;;17.80;36.50;;;;;;5101140;28;20448;-59
2022/03/20 11:06:37;;;;;;;5.45;4.32;;;17.80;36.90;;;;;;5119593;28;20023;-58
2022/03/20 11:09:04;;;;;;;5.80;4.10;;;17.80;36.40;;;;;;5101335;28;20043;-59
2022/03/20 11:11:33;;;;;;;5.35;3.92;;;17.80;36.40;;;;;;5119157;28;20079;-59
2022/03/20 11:13:59;;;;;;;4.70;4.20;;;17.80;36.40;;;;;;5118539;28;20095;-58
2022/03/20 11:16:26;;;;;;;5.03;4.28;;;17.80;36.40;;;;;;5117146;28;20024;-58
2022/03/20 11:18:52;;;;;;;6.40;4.90;;;17.90;36.50;;;;;;5117566;28;20008;-58
2022/03/20 11:21:23;;;;;;;7.70;4.55;;;17.90;36.40;;;;;;5098805;28;20019;-58
2022/03/20 11:23:52;;;;;;;5.82;4.97;;;17.80;36.40;;;;;;5116940;28;20558;-57
2022/03/20 11:26:22;;;;;;;5.95;4.80;;;17.80;36.40;;;;;;5099437;28;20358;-56
2022/03/20 11:28:53;;;;;;;7.07;5.10;;;17.80;36.30;;;;;;5116472;28;20015;-56
2022/03/20 11:31:19;;;;;;;;;;;17.80;36.30;;;;;;5100022;28;20118;-58
2022/03/20 11:33:45;;;;;;;6.32;5.28;;;17.80;36.20;;;;;;5118130;28;19961;-59
2022/03/20 11:36:12;;;;;;;7.63;5.32;;;17.80;36.20;;;;;;5100042;28;20095;-59
2022/03/20 11:38:37;;;;;;;5.88;5.05;;;17.80;36.20;;;;;;5099864;28;20050;-55
2022/03/20 11:41:12;;;;;;;6.53;4.93;;;17.80;36.30;;;;;;5118069;28;20016;-58
2022/03/20 11:43:41;;;;;;;8.13;6.15;;;17.80;36.30;;;;;;5117837;28;20086;-58
2022/03/20 11:46:21;;;;;;;5.95;5.22;;;17.80;36.30;;;;;;5116802;28;20015;-58
2022/03/20 11:49:17;;;;;;;7.28;4.80;;;17.70;36.20;;;;;;5116607;28;20028;-58
2022/03/20 11:52:01;;;;;;;9.60;6.03;;;17.80;36.40;;;;;;5116080;28;20461;-57
2022/03/20 11:54:39;;;;;;;7.43;5.32;;;17.80;36.20;;;;;;5116117;28;20015;-56
2022/03/20 11:57:24;;;;;;;6.50;5.38;;;17.80;36.30;;;;;;5116333;28;20077;-58
2022/03/20 11:59:55;;;;;;;7.32;6.00;;;17.70;36.30;;;;;;5115375;28;20357;-56
2022/03/20 12:02:24;;;;;;;6.30;5.43;;;17.70;36.20;;;;;;5115880;28;20084;-58
2022/03/20 12:05:01;;;;;;;7.35;6.10;;;17.80;36.40;;;;;;5115710;28;20007;-54
2022/03/20 12:07:40;;;;;;;9.77;5.68;;;17.80;36.30;;;;;;5115928;28;20041;-56
2022/03/20 12:10:28;;;;;;;8.02;6.10;;;17.70;36.30;;;;;;5115567;28;20102;-57
2022/03/20 12:13:12;;;;;;;7.85;6.05;;;17.70;36.30;;;;;;5097061;28;20024;-57
2022/03/20 12:15:42;;;;;;;7.55;6.25;;;17.80;36.20;;;;;;5098933;28;20014;-58
2022/03/20 12:18:10;;;;;;;9.40;5.97;;;17.80;36.10;;;;;;5115430;28;20020;-57
2022/03/20 12:20:52;;;;;;;8.07;6.20;;;17.80;36.10;;;;;;5097792;28;20069;-58
2022/03/20 12:23:35;;;;;;;7.93;6.32;;;17.90;36.10;;;;;;5115619;28;20015;-56
2022/03/20 12:26:34;;;;;;;11.38;6.40;;;17.90;36.10;;;;;;5115416;28;20008;-58
2022/03/20 12:29:38;;;;;;;8.40;5.53;;;17.80;36.00;;;;;;5115872;28;20011;-59
2022/03/20 12:32:12;;;;;;;6.80;6.10;;;17.90;36.10;;;;;;5052632;28;20576;-59
2022/03/20 12:34:42;;;;;;;6.78;6.07;;;17.90;36.10;;;;;;5053225;28;20020;-59
2022/03/20 12:37:30;;;;;;;8.40;6.03;;;17.80;36.10;;;;;;5053283;28;20039;-59
2022/03/20 12:39:56;;;;;;;9.30;6.60;;;17.90;36.20;;;;;;5053104;28;20049;-58
2022/03/20 12:42:22;;;;;;;7.40;6.57;;;17.80;36.10;;;;;;5036572;28;20021;-53
2022/03/20 12:44:49;;;;;;;7.68;6.18;;;17.80;36.20;;;;;;5052548;28;20467;-57
2022/03/20 12:47:22;;;;;;;9.35;6.80;;;17.80;36.20;;;;;;5052157;28;20471;-55
2022/03/20 12:50:10;;;;;;;6.63;5.95;;;17.70;36.30;;;;;;5052236;28;20534;-55
2022/03/20 12:52:37;;;;;;;9.65;7.38;;;17.80;36.30;;;;;;5035710;28;20513;-56
2022/03/20 12:55:05;;;;;;;6.90;6.18;;;17.70;36.20;;;;;;5052591;28;20028;-57
2022/03/20 12:57:43;;;;;;;7.90;6.78;;;17.70;36.30;;;;;;5053192;28;20557;-53
2022/03/20 13:00:20;;;;;;;7.22;6.50;;;17.70;36.30;;;;;;5053904;28;20454;-58
2022/03/20 13:03:08;;;;;;;9.63;7.00;;;17.70;36.30;;;;;;5084551;28;20028;-59
2022/03/20 13:05:46;;;;;;;8.02;7.03;;;17.60;36.30;;;;;;5116684;28;20012;-57
2022/03/20 13:08:35;;;;;;;11.07;7.43;;;17.60;36.30;;;;;;5116992;28;20094;-54
2022/03/20 13:14:12;;;;;;;8.25;6.43;;;17.60;36.40;;;;;;5116848;28;20092;-51
2022/03/20 13:16:49;;;;;;;7.85;7.00;;;17.60;36.40;;;;;;5116140;28;20020;-52
2022/03/20 13:19:37;;;;;;;7.97;5.75;;;17.60;36.40;;;;;;5116797;28;20012;-56
2022/03/20 13:22:04;;;;;;;8.23;6.88;;;17.60;36.50;;;;;;5116621;28;20023;-55
2022/03/20 13:24:35;;;;;;;7.13;6.35;;;17.60;36.40;;;;;;5116378;28;20012;-54
2022/03/20 13:27:03;;;;;;;7.18;6.40;;;17.60;36.50;;;;;;5115357;28;20022;-56
2022/03/20 13:29:29;;;;;;;7.70;6.55;;;17.60;36.50;;;;;;5115240;28;20039;-52
2022/03/20 13:31:59;;;;;;;8.23;5.95;;;17.60;36.40;;;;;;5115003;28;20496;-52
2022/03/20 13:34:25;;;;;;;7.47;6.25;;;17.60;36.60;;;;;;5114827;28;20482;-55